Darstellungsparameter: Aktuell verwendete Einstellungen:
Skalierung der Graphiken ... ?
xyx+y,   Skalierungsfaktor:      Skalierung: Modus: x, Faktor: 1
Darstellungszeitraum ... ?
Vom - - bis: - -   Zeitraum: 13.05.2021 - 13.05.2021
Min/Max/Avg-Anzeige ... ?
Zeige MMA aktuell
Zeige MMA Monat
Zeige MMA alles
Zeige --A aktuell
Zeige --A Monat
Zeige --A alles
Keine MMA-Anzeige
MMA:
Keine MMA-Graphiken
MMA-Basis: 13.05.2021 - 13.05.2021
Quicknavigation für Darstellung... ?
Tage:      1T, 2T, 3T, 5T -1T -2T -3T -5T +1T +2T +3T +5T
Wochen: 1W, 2W, 3W -1W -2W -3W +1W +2W +3W
Monate: 1M, 3M, 6M -1M -3M -6M +1M +3M +6M
Jahre:    1J, 3J, 5J, 10J -1J -3J -5J -10J +1J +3J +5J +10J
Nutze für die Darstellung ... ?
Originaldaten oder Mittelwerte auf ...
Stundenbasis Tagesbasis Wochenbasis
Monatsbasis Jahresbasis      Datenbasis: Original-Daten
Darstellen als:
Statistik (Auto) Statistik J:M      Darstellung:
Zur Graphik,    zurück zur Übersicht aller Sensoren.
 
Tabellarische Datenbersicht: ?
 
Sensor: Nr:Datum:Temp:Feuchte:
Aussen-T/F 1 13-05-2021 00:06:17 9.2 C 46 %
2 13-05-2021 00:16:17 9.4 C 46 %
3 13-05-2021 00:26:17 9.3 C 46 %
4 13-05-2021 00:36:17 8.7 C 46 %
5 13-05-2021 00:46:17 8.9 C 48 %
6 13-05-2021 00:56:17 8.7 C 46 %
7 13-05-2021 01:06:17 8.6 C 47 %
8 13-05-2021 01:16:18 8.4 C 47 %
9 13-05-2021 01:26:18 8.3 C 47 %
10 13-05-2021 01:36:18 8.3 C 48 %
11 13-05-2021 01:46:17 8.3 C 48 %
12 13-05-2021 01:56:17 8 C 47 %
13 13-05-2021 02:06:17 8 C 47 %
14 13-05-2021 02:16:17 7.7 C 48 %
15 13-05-2021 02:26:17 7.4 C 47 %
16 13-05-2021 02:36:17 7.6 C 48 %
17 13-05-2021 02:46:18 7.7 C 48 %
18 13-05-2021 02:56:18 7.6 C 48 %
19 13-05-2021 03:06:17 7.4 C 48 %
20 13-05-2021 03:16:17 7.2 C 48 %
21 13-05-2021 03:26:17 7 C 48 %
22 13-05-2021 03:36:17 7 C 48 %
23 13-05-2021 03:46:17 7 C 48 %
24 13-05-2021 03:56:17 7.1 C 48 %
25 13-05-2021 04:06:17 6.9 C 48 %
Sensor: Nr:Datum:Temp:Feuchte:
Aussen-T/F 26 13-05-2021 04:16:17 6.9 C 48 %
27 13-05-2021 04:26:17 6.8 C 48 %
28 13-05-2021 04:36:17 6.9 C 48 %
29 13-05-2021 04:46:17 6.7 C 48 %
30 13-05-2021 04:56:18 6.7 C 48 %
31 13-05-2021 05:06:17 6.6 C 48 %
32 13-05-2021 05:16:17 6.4 C 48 %
33 13-05-2021 05:26:17 6.1 C 48 %
34 13-05-2021 05:36:18 6 C 48 %
35 13-05-2021 05:46:17 5.9 C 49 %
36 13-05-2021 05:56:17 6 C 48 %
37 13-05-2021 06:06:18 5.9 C 49 %
38 13-05-2021 06:16:18 6.3 C 48 %
39 13-05-2021 06:26:18 6.6 C 48 %
40 13-05-2021 06:36:17 6.6 C 48 %
41 13-05-2021 06:46:18 6.7 C 48 %
42 13-05-2021 06:56:18 6.8 C 48 %
43 13-05-2021 07:06:17 7 C 47 %
44 13-05-2021 07:16:17 7.1 C 47 %
45 13-05-2021 07:26:17 7.1 C 47 %
46 13-05-2021 07:36:17 7.1 C 47 %
47 13-05-2021 07:46:18 7.6 C 48 %
48 13-05-2021 07:56:18 8 C 47 %
49 13-05-2021 08:06:17 8.1 C 46 %
50 13-05-2021 08:16:17 8 C 46 %
Sensor: Nr:Datum:Temp:Feuchte:
Aussen-T/F 51 13-05-2021 08:26:17 8 C 46 %
52 13-05-2021 08:36:17 8.2 C 47 %
53 13-05-2021 08:46:17 8.4 C 46 %
54 13-05-2021 08:56:17 8.6 C 46 %
55 13-05-2021 09:06:17 9.3 C 45 %
56 13-05-2021 09:16:18 10.1 C 42 %
57 13-05-2021 09:26:18 10.7 C 40 %
58 13-05-2021 09:36:17 11.1 C 40 %
59 13-05-2021 09:46:17 11.3 C 40 %
60 13-05-2021 09:56:17 12 C 39 %
61 13-05-2021 10:06:18 12.4 C 37 %
62 13-05-2021 10:16:17 12.8 C 37 %
63 13-05-2021 10:26:17 13.5 C 36 %
64 13-05-2021 10:36:17 14.3 C 35 %
65 13-05-2021 10:46:18 15 C 33 %
66 13-05-2021 10:56:18 15.5 C 32 %
67 13-05-2021 11:06:17 16.1 C 32 %
68 13-05-2021 11:16:17 19 C 28 %
69 13-05-2021 11:26:17 18.5 C 28 %
70 13-05-2021 11:36:17 15.5 C 31 %
71 13-05-2021 11:46:18 19.3 C 27 %
72 13-05-2021 11:56:18 17.2 C 29 %
73 13-05-2021 12:06:17 17.6 C 27 %
74 13-05-2021 12:16:17 17.7 C 29 %
75 13-05-2021 12:26:17 18.1 C 28 %
Sensor: Nr:Datum:Temp:Feuchte:
Aussen-T/F 76 13-05-2021 12:36:17 18.7 C 26 %
77 13-05-2021 12:46:18 19.3 C 25 %
78 13-05-2021 12:56:18 19.1 C 23 %
79 13-05-2021 13:06:17 19.5 C 23 %
80 13-05-2021 13:16:17 19.3 C 23 %
81 13-05-2021 13:26:17 19.3 C 23 %
82 13-05-2021 13:36:18 19.3 C 23 %
83 13-05-2021 13:46:17 20.1 C 23 %
84 13-05-2021 13:56:17 24.6 C 20 %
85 13-05-2021 14:06:17 25.2 C 20 %
86 13-05-2021 14:16:17 24 C 20 %
87 13-05-2021 14:26:17 26.2 C 20 %
88 13-05-2021 14:36:17 22.3 C 20 %
89 13-05-2021 14:46:17 22.9 C 20 %
90 13-05-2021 14:56:17 21.7 C 20 %
91 13-05-2021 15:06:17 25.6 C 20 %
92 13-05-2021 15:16:17 23.7 C 20 %
93 13-05-2021 15:26:17 21.3 C 20 %
94 13-05-2021 15:36:18 21.6 C 20 %
95 13-05-2021 15:46:18 25.1 C 20 %
96 13-05-2021 15:56:18 23.2 C 20 %
97 13-05-2021 16:06:17 22.5 C 20 %
98 13-05-2021 16:16:17 20.6 C 20 %
99 13-05-2021 16:26:17 19.2 C 22 %
100 13-05-2021 16:36:17 18.9 C 23 %
Sensor: Nr:Datum:Temp:Feuchte:
Aussen-T/F 101 13-05-2021 16:46:17 18.5 C 23 %
102 13-05-2021 16:56:17 18.9 C 23 %
103 13-05-2021 17:06:17 19.7 C 22 %
104 13-05-2021 17:16:17 19.9 C 22 %
105 13-05-2021 17:26:17 19.8 C 23 %
106 13-05-2021 17:36:17 21.5 C 21 %
107 13-05-2021 17:46:18 23.7 C 20 %
108 13-05-2021 17:56:18 20 C 20 %
109 13-05-2021 18:06:17 19.8 C 21 %
110 13-05-2021 18:16:17 18.9 C 23 %
111 13-05-2021 18:26:17 18 C 24 %
112 13-05-2021 18:36:17 17.6 C 24 %
113 13-05-2021 18:46:18 17 C 25 %
114 13-05-2021 18:56:18 16.8 C 25 %
115 13-05-2021 19:06:17 16.5 C 27 %
116 13-05-2021 19:16:17 16.1 C 26 %
117 13-05-2021 19:26:17 15.9 C 27 %
118 13-05-2021 19:36:17 15.9 C 28 %
119 13-05-2021 19:46:18 15.8 C 28 %
120 13-05-2021 19:56:18 15.8 C 28 %
121 13-05-2021 20:06:17 15.3 C 29 %
122 13-05-2021 20:16:17 15.1 C 30 %
123 13-05-2021 20:26:17 14.9 C 30 %
124 13-05-2021 20:36:17 14.8 C 30 %
125 13-05-2021 20:46:17 14.7 C 30 %
Sensor: Nr:Datum:Temp:Feuchte:
Aussen-T/F 126 13-05-2021 20:56:17 14.5 C 31 %
127 13-05-2021 21:06:17 14.3 C 31 %
128 13-05-2021 21:16:17 14.3 C 30 %
129 13-05-2021 21:26:17 14.2 C 30 %
130 13-05-2021 21:36:17 14.1 C 30 %
131 13-05-2021 21:46:18 14.1 C 30 %
132 13-05-2021 21:56:18 14 C 30 %
133 13-05-2021 22:06:18 13.7 C 31 %
134 13-05-2021 22:16:17 13.4 C 32 %
135 13-05-2021 22:26:17 13.4 C 32 %
136 13-05-2021 22:36:17 13.1 C 32 %
137 13-05-2021 22:46:17 12.4 C 35 %
138 13-05-2021 22:56:17 12.2 C 35 %
139 13-05-2021 23:06:17 12.1 C 35 %
140 13-05-2021 23:16:17 12.2 C 35 %
141 13-05-2021 23:26:17 12.1 C 35 %
142 13-05-2021 23:36:17 12.2 C 35 %
143 13-05-2021 23:46:17 12 C 35 %
144 13-05-2021 23:56:17 12.2 C 35 %
Sensor: Nr:Datum:Temp:Feuchte:
G-T/H 1 13-05-2021 00:06:17 15.2 C 63 %
2 13-05-2021 00:16:17 15.2 C 63 %
3 13-05-2021 00:26:17 15.2 C 63 %
4 13-05-2021 00:36:17 15.2 C 63 %
5 13-05-2021 00:46:17 15.2 C 63 %
6 13-05-2021 00:56:17 15.2 C 63 %
7 13-05-2021 01:06:17 15.2 C 63 %
8 13-05-2021 01:16:18 15.1 C 63 %
9 13-05-2021 01:26:18 15.2 C 63 %
10 13-05-2021 01:36:18 15.1 C 63 %
11 13-05-2021 01:46:17 15.1 C 63 %
12 13-05-2021 01:56:17 15 C 63 %
13 13-05-2021 02:06:17 15 C 63 %
14 13-05-2021 02:16:17 15 C 63 %
15 13-05-2021 02:26:17 15 C 63 %
16 13-05-2021 02:36:17 15 C 63 %
17 13-05-2021 02:46:18 15 C 63 %
18 13-05-2021 02:56:18 15 C 63 %
19 13-05-2021 03:06:17 14.9 C 64 %
20 13-05-2021 03:16:17 15 C 63 %
21 13-05-2021 03:26:17 14.9 C 64 %
22 13-05-2021 03:36:17 14.9 C 64 %
23 13-05-2021 03:46:17 14.9 C 64 %
24 13-05-2021 03:56:17 14.8 C 64 %
25 13-05-2021 04:06:17 14.8 C 64 %
Sensor: Nr:Datum:Temp:Feuchte:
G-T/H 26 13-05-2021 04:16:17 14.8 C 64 %
27 13-05-2021 04:26:17 14.8 C 64 %
28 13-05-2021 04:36:17 14.8 C 64 %
29 13-05-2021 04:46:17 14.7 C 64 %
30 13-05-2021 04:56:18 14.7 C 63 %
31 13-05-2021 05:06:17 14.7 C 63 %
32 13-05-2021 05:16:17 14.7 C 63 %
33 13-05-2021 05:26:17 14.7 C 63 %
34 13-05-2021 05:36:18 14.7 C 63 %
35 13-05-2021 05:46:17 14.6 C 63 %
36 13-05-2021 05:56:17 14.6 C 63 %
37 13-05-2021 06:06:18 14.5 C 63 %
38 13-05-2021 06:16:18 14.5 C 63 %
39 13-05-2021 06:26:18 14.5 C 63 %
40 13-05-2021 06:36:17 14.5 C 63 %
41 13-05-2021 06:46:18 14.5 C 63 %
42 13-05-2021 06:56:18 14.5 C 63 %
43 13-05-2021 07:06:17 14.5 C 63 %
44 13-05-2021 07:16:17 14.5 C 63 %
45 13-05-2021 07:26:17 14.4 C 63 %
46 13-05-2021 07:36:17 14.4 C 63 %
47 13-05-2021 07:46:18 14.4 C 63 %
48 13-05-2021 07:56:18 14.4 C 63 %
49 13-05-2021 08:06:17 14.4 C 63 %
50 13-05-2021 08:16:17 14.4 C 63 %
Sensor: Nr:Datum:Temp:Feuchte:
G-T/H 51 13-05-2021 08:26:17 14.3 C 63 %
52 13-05-2021 08:36:17 14.3 C 63 %
53 13-05-2021 08:46:17 14.3 C 63 %
54 13-05-2021 08:56:17 14.3 C 63 %
55 13-05-2021 09:06:17 14.2 C 63 %
56 13-05-2021 09:16:18 14.2 C 63 %
57 13-05-2021 09:26:18 14.2 C 63 %
58 13-05-2021 09:36:17 14.2 C 63 %
59 13-05-2021 09:46:17 14.2 C 63 %
60 13-05-2021 09:56:17 14.2 C 63 %
61 13-05-2021 10:06:18 14.2 C 63 %
62 13-05-2021 10:16:17 14.2 C 64 %
63 13-05-2021 10:26:17 14.2 C 64 %
64 13-05-2021 10:36:17 14.2 C 64 %
65 13-05-2021 10:46:18 14.1 C 64 %
66 13-05-2021 10:56:18 14.2 C 64 %
67 13-05-2021 11:06:17 14.1 C 64 %
68 13-05-2021 11:16:17 14.2 C 64 %
69 13-05-2021 11:26:17 14.2 C 64 %
70 13-05-2021 11:36:17 14.1 C 64 %
71 13-05-2021 11:46:18 14.1 C 64 %
72 13-05-2021 11:56:18 14.2 C 64 %
73 13-05-2021 12:06:17 14.1 C 64 %
74 13-05-2021 12:16:17 14.2 C 64 %
75 13-05-2021 12:26:17 14.2 C 64 %
Sensor: Nr:Datum:Temp:Feuchte:
G-T/H 76 13-05-2021 12:36:17 14.2 C 64 %
77 13-05-2021 12:46:18 14.2 C 64 %
78 13-05-2021 12:56:18 14.3 C 64 %
79 13-05-2021 13:06:17 14.3 C 64 %
80 13-05-2021 13:16:17 14.3 C 64 %
81 13-05-2021 13:26:17 14.3 C 64 %
82 13-05-2021 13:36:18 14.4 C 64 %
83 13-05-2021 13:46:17 14.4 C 64 %
84 13-05-2021 13:56:17 14.4 C 64 %
85 13-05-2021 14:06:17 14.4 C 64 %
86 13-05-2021 14:16:17 14.5 C 64 %
87 13-05-2021 14:26:17 14.5 C 64 %
88 13-05-2021 14:36:17 14.5 C 64 %
89 13-05-2021 14:46:17 14.5 C 64 %
90 13-05-2021 14:56:17 14.6 C 64 %
91 13-05-2021 15:06:17 14.6 C 64 %
92 13-05-2021 15:16:17 14.6 C 64 %
93 13-05-2021 15:26:17 14.6 C 64 %
94 13-05-2021 15:36:18 14.7 C 64 %
95 13-05-2021 15:46:18 14.7 C 64 %
96 13-05-2021 15:56:18 14.7 C 64 %
97 13-05-2021 16:06:17 14.7 C 64 %
98 13-05-2021 16:16:17 14.8 C 64 %
99 13-05-2021 16:26:17 14.8 C 64 %
100 13-05-2021 16:36:17 14.8 C 64 %
Sensor: Nr:Datum:Temp:Feuchte:
G-T/H 101 13-05-2021 16:46:17 14.8 C 64 %
102 13-05-2021 16:56:17 14.8 C 64 %
103 13-05-2021 17:06:17 14.8 C 64 %
104 13-05-2021 17:16:17 14.9 C 64 %
105 13-05-2021 17:26:17 14.9 C 63 %
106 13-05-2021 17:36:17 15 C 62 %
107 13-05-2021 17:46:18 15 C 62 %
108 13-05-2021 17:56:18 15 C 62 %
109 13-05-2021 18:06:17 15 C 62 %
110 13-05-2021 18:16:17 15.1 C 62 %
111 13-05-2021 18:26:17 15.1 C 62 %
112 13-05-2021 18:36:17 15.1 C 62 %
113 13-05-2021 18:46:18 15.1 C 62 %
114 13-05-2021 18:56:18 15.1 C 62 %
115 13-05-2021 19:06:17 15.1 C 62 %
116 13-05-2021 19:16:17 15.1 C 62 %
117 13-05-2021 19:26:17 15.1 C 62 %
118 13-05-2021 19:36:17 15.1 C 62 %
119 13-05-2021 19:46:18 15.2 C 62 %
120 13-05-2021 19:56:18 15.1 C 62 %
121 13-05-2021 20:06:17 15.2 C 62 %
122 13-05-2021 20:16:17 15.2 C 62 %
123 13-05-2021 20:26:17 15.2 C 62 %
124 13-05-2021 20:36:17 15.2 C 62 %
125 13-05-2021 20:46:17 15.2 C 63 %
Sensor: Nr:Datum:Temp:Feuchte:
G-T/H 126 13-05-2021 20:56:17 15.2 C 63 %
127 13-05-2021 21:06:17 15.2 C 63 %
128 13-05-2021 21:16:17 15.2 C 63 %
129 13-05-2021 21:26:17 15.2 C 63 %
130 13-05-2021 21:36:17 15.2 C 63 %
131 13-05-2021 21:46:18 15.2 C 63 %
132 13-05-2021 21:56:18 15.2 C 63 %
133 13-05-2021 22:06:18 15.2 C 63 %
134 13-05-2021 22:16:17 15.2 C 63 %
135 13-05-2021 22:26:17 15.2 C 63 %
136 13-05-2021 22:36:17 15.2 C 63 %
137 13-05-2021 22:46:17 15.2 C 63 %
138 13-05-2021 22:56:17 15.2 C 63 %
139 13-05-2021 23:06:17 15.2 C 63 %
140 13-05-2021 23:16:17 15.2 C 63 %
141 13-05-2021 23:26:17 15.2 C 63 %
142 13-05-2021 23:36:17 15.2 C 63 %
143 13-05-2021 23:46:17 15.2 C 63 %
144 13-05-2021 23:56:17 15.2 C 63 %

Legende:
   Min
   Max


Maximal/Minimal-Werte vom 13.05.2021 - 13.05.2021

Sensor Min Max Avg
Temp
(Aussen-T/F)
5.9 °C
13-05-2021  05:46:17
26.2 °C
13-05-2021  14:26:17
13.5 °C
Feuchte
(Aussen-T/F)
20 %
13-05-2021  13:56:17
49 %
13-05-2021  05:46:17
35.13 %
Temp
(G-T/H)
14.1 °C
13-05-2021  10:46:18
15.2 °C
13-05-2021  00:06:17
14.74 °C
Feuchte
(G-T/H)
62 %
13-05-2021  17:36:17
64 %
13-05-2021  03:06:17
63.24 %

Die Daten stammen von einer Davis Vantage Pro 2 Wetter-Station und werden unter Linux mit der Software wview2wettercgi und aufbereitet. Alle Angaben erfolgen ohne Gewähr für ihre Vollständigkeit oder Richtigkeit.
Kontakt: Rainer Krienke krienke@uni-koblenz.de . Meine Webseiten an der Uni Koblenz oder privat.
Version: $Revision: 0.78 $